sensor_id;sensor_type;location;lat;lon;timestamp;pressure;altitude;pressure_sealevel;temperature;humidity
25526;BME280;13424;48.424;11.258;2023-05-24T00:00:47;95748.34;;;16.93;73.89
25526;BME280;13424;48.424;11.258;2023-05-24T00:03:17;95752.31;;;17.06;73.20
25526;BME280;13424;48.424;11.258;2023-05-24T00:05:43;95767.16;;;16.98;73.42
25526;BME280;13424;48.424;11.258;2023-05-24T00:08:11;95755.75;;;17.21;72.59
25526;BME280;13424;48.424;11.258;2023-05-24T00:10:37;95769.00;;;17.13;72.70
25526;BME280;13424;48.424;11.258;2023-05-24T00:13:03;95753.88;;;16.22;75.36
25526;BME280;13424;48.424;11.258;2023-05-24T00:15:29;95764.31;;;17.34;71.57
25526;BME280;13424;48.424;11.258;2023-05-24T00:17:55;95757.63;;;17.26;72.07
25526;BME280;13424;48.424;11.258;2023-05-24T00:20:20;95764.03;;;17.35;72.06
25526;BME280;13424;48.424;11.258;2023-05-24T00:23:11;95764.88;;;17.30;71.84
25526;BME280;13424;48.424;11.258;2023-05-24T00:25:37;95764.09;;;17.25;72.42
25526;BME280;13424;48.424;11.258;2023-05-24T00:28:03;95764.31;;;17.34;71.76
25526;BME280;13424;48.424;11.258;2023-05-24T00:30:29;95761.59;;;17.39;71.78
25526;BME280;13424;48.424;11.258;2023-05-24T00:32:54;95765.25;;;17.03;72.33
25526;BME280;13424;48.424;11.258;2023-05-24T00:35:22;95771.00;;;17.46;71.61
25526;BME280;13424;48.424;11.258;2023-05-24T00:37:49;95768.25;;;17.51;71.57
25526;BME280;13424;48.424;11.258;2023-05-24T00:40:15;95766.53;;;15.80;76.98
25526;BME280;13424;48.424;11.258;2023-05-24T00:42:41;95756.00;;;17.30;71.55
25526;BME280;13424;48.424;11.258;2023-05-24T00:45:07;95763.66;;;16.97;73.12
25526;BME280;13424;48.424;11.258;2023-05-24T00:47:34;95751.00;;;16.98;72.57
25526;BME280;13424;48.424;11.258;2023-05-24T00:50:00;95754.41;;;17.24;72.60
25526;BME280;13424;48.424;11.258;2023-05-24T00:52:26;95761.97;;;17.17;72.12
25526;BME280;13424;48.424;11.258;2023-05-24T00:54:54;95756.19;;;16.84;73.09
25526;BME280;13424;48.424;11.258;2023-05-24T00:57:21;95758.19;;;17.18;71.51
25526;BME280;13424;48.424;11.258;2023-05-24T00:59:48;95753.75;;;17.37;71.67
25526;BME280;13424;48.424;11.258;2023-05-24T01:06:20;95754.53;;;16.93;72.73
25526;BME280;13424;48.424;11.258;2023-05-24T01:09:18;95755.38;;;16.84;72.96
25526;BME280;13424;48.424;11.258;2023-05-24T01:12:19;95751.16;;;17.22;71.60
25526;BME280;13424;48.424;11.258;2023-05-24T01:15:21;95749.22;;;16.73;73.19
25526;BME280;13424;48.424;11.258;2023-05-24T01:18:06;95738.31;;;17.03;71.95
25526;BME280;13424;48.424;11.258;2023-05-24T01:20:36;95741.25;;;15.66;76.64
25526;BME280;13424;48.424;11.258;2023-05-24T01:29:18;95749.31;;;15.91;75.95
25526;BME280;13424;48.424;11.258;2023-05-24T01:31:44;95746.63;;;15.76;76.62
25526;BME280;13424;48.424;11.258;2023-05-24T01:34:10;95745.25;;;16.30;75.64
25526;BME280;13424;48.424;11.258;2023-05-24T01:36:36;95746.09;;;16.15;74.95
25526;BME280;13424;48.424;11.258;2023-05-24T01:39:02;95760.06;;;16.22;74.52
25526;BME280;13424;48.424;11.258;2023-05-24T01:41:46;95759.28;;;15.81;76.40
25526;BME280;13424;48.424;11.258;2023-05-24T01:44:54;95750.63;;;15.58;77.46
25526;BME280;13424;48.424;11.258;2023-05-24T01:50:24;95764.25;;;14.21;80.99
25526;BME280;13424;48.424;11.258;2023-05-24T01:52:51;95764.13;;;15.74;76.11
25526;BME280;13424;48.424;11.258;2023-05-24T01:55:18;95758.22;;;15.97;74.43
25526;BME280;13424;48.424;11.258;2023-05-24T01:57:47;95758.47;;;15.65;75.02
25526;BME280;13424;48.424;11.258;2023-05-24T02:00:17;95760.59;;;16.09;73.53
25526;BME280;13424;48.424;11.258;2023-05-24T02:02:44;95756.56;;;15.86;73.68
25526;BME280;13424;48.424;11.258;2023-05-24T02:05:11;95766.94;;;15.31;75.68
25526;BME280;13424;48.424;11.258;2023-05-24T02:07:37;95753.03;;;15.60;74.94
25526;BME280;13424;48.424;11.258;2023-05-24T02:10:03;95763.31;;;15.83;73.90
25526;BME280;13424;48.424;11.258;2023-05-24T02:12:30;95761.13;;;16.11;73.46
25526;BME280;13424;48.424;11.258;2023-05-24T02:14:55;95765.78;;;14.97;76.11
25526;BME280;13424;48.424;11.258;2023-05-24T02:17:21;95768.13;;;15.86;74.55
25526;BME280;13424;48.424;11.258;2023-05-24T02:19:50;95774.59;;;16.01;73.40
25526;BME280;13424;48.424;11.258;2023-05-24T02:22:16;95760.59;;;15.63;73.90
25526;BME280;13424;48.424;11.258;2023-05-24T02:24:41;95759.81;;;15.68;73.39
25526;BME280;13424;48.424;11.258;2023-05-24T02:27:08;95764.91;;;15.64;72.86
25526;BME280;13424;48.424;11.258;2023-05-24T02:29:33;95768.38;;;15.59;72.36
25526;BME280;13424;48.424;11.258;2023-05-24T02:31:59;95768.28;;;15.19;73.44
25526;BME280;13424;48.424;11.258;2023-05-24T02:34:25;95771.03;;;15.44;73.25
25526;BME280;13424;48.424;11.258;2023-05-24T02:36:51;95762.75;;;15.66;72.20
25526;BME280;13424;48.424;11.258;2023-05-24T02:39:19;95768.06;;;15.41;72.62
25526;BME280;13424;48.424;11.258;2023-05-24T02:41:45;95773.53;;;15.76;71.45
25526;BME280;13424;48.424;11.258;2023-05-24T02:44:10;95769.72;;;15.57;71.73
25526;BME280;13424;48.424;11.258;2023-05-24T02:46:36;95761.09;;;15.55;71.48
25526;BME280;13424;48.424;11.258;2023-05-24T02:49:02;95766.44;;;15.45;71.50
25526;BME280;13424;48.424;11.258;2023-05-24T02:51:29;95764.25;;;15.31;72.82
25526;BME280;13424;48.424;11.258;2023-05-24T02:53:57;95755.06;;;15.02;73.05
25526;BME280;13424;48.424;11.258;2023-05-24T02:56:23;95759.44;;;15.39;72.75
25526;BME280;13424;48.424;11.258;2023-05-24T02:58:51;95757.22;;;15.15;73.41
25526;BME280;13424;48.424;11.258;2023-05-24T03:01:19;95756.69;;;15.03;74.06
25526;BME280;13424;48.424;11.258;2023-05-24T03:03:46;95746.47;;;15.05;73.79
25526;BME280;13424;48.424;11.258;2023-05-24T03:06:12;95753.47;;;13.47;78.58
25526;BME280;13424;48.424;11.258;2023-05-24T03:08:41;95755.94;;;14.55;75.95
25526;BME280;13424;48.424;11.258;2023-05-24T03:11:06;95752.97;;;13.50;79.46
25526;BME280;13424;48.424;11.258;2023-05-24T03:13:33;95756.31;;;13.35;80.37
25526;BME280;13424;48.424;11.258;2023-05-24T03:20:07;95753.81;;;14.62;75.21
25526;BME280;13424;48.424;11.258;2023-05-24T03:22:34;95756.00;;;14.28;75.90
25526;BME280;13424;48.424;11.258;2023-05-24T03:25:02;95762.16;;;14.66;75.04
25526;BME280;13424;48.424;11.258;2023-05-24T03:27:27;95754.94;;;14.71;74.86
25526;BME280;13424;48.424;11.258;2023-05-24T03:29:53;95763.00;;;14.71;74.69
25526;BME280;13424;48.424;11.258;2023-05-24T03:32:23;95754.75;;;13.18;79.46
25526;BME280;13424;48.424;11.258;2023-05-24T03:35:21;95765.59;;;14.19;75.95
25526;BME280;13424;48.424;11.258;2023-05-24T03:37:48;95772.53;;;14.47;75.41
25526;BME280;13424;48.424;11.258;2023-05-24T03:40:14;95769.34;;;14.18;76.41
25526;BME280;13424;48.424;11.258;2023-05-24T03:42:51;95772.56;;;14.57;74.90
25526;BME280;13424;48.424;11.258;2023-05-24T03:45:20;95769.41;;;14.65;74.46
25526;BME280;13424;48.424;11.258;2023-05-24T03:47:46;95767.88;;;14.42;75.64
25526;BME280;13424;48.424;11.258;2023-05-24T03:50:12;95764.34;;;14.32;75.63
25526;BME280;13424;48.424;11.258;2023-05-24T03:52:39;95767.97;;;14.47;75.34
25526;BME280;13424;48.424;11.258;2023-05-24T03:55:05;95763.53;;;14.31;74.59
25526;BME280;13424;48.424;11.258;2023-05-24T03:57:37;95772.59;;;13.88;76.89
25526;BME280;13424;48.424;11.258;2023-05-24T04:00:03;95774.50;;;14.24;75.68
25526;BME280;13424;48.424;11.258;2023-05-24T04:02:39;95774.72;;;14.55;75.02
25526;BME280;13424;48.424;11.258;2023-05-24T04:05:06;95772.06;;;14.65;73.06
25526;BME280;13424;48.424;11.258;2023-05-24T04:07:36;95775.22;;;14.52;74.12
25526;BME280;13424;48.424;11.258;2023-05-24T04:10:04;95776.56;;;14.49;73.78
25526;BME280;13424;48.424;11.258;2023-05-24T04:12:30;95771.19;;;14.49;73.37
25526;BME280;13424;48.424;11.258;2023-05-24T04:15:01;95779.09;;;14.71;72.53
25526;BME280;13424;48.424;11.258;2023-05-24T04:17:27;95772.88;;;14.23;73.71
25526;BME280;13424;48.424;11.258;2023-05-24T04:20:00;95776.59;;;14.55;73.31
25526;BME280;13424;48.424;11.258;2023-05-24T04:26:08;95776.22;;;14.88;71.93
25526;BME280;13424;48.424;11.258;2023-05-24T04:28:37;95775.25;;;13.83;74.40
25526;BME280;13424;48.424;11.258;2023-05-24T04:31:05;95780.75;;;14.83;71.42
25526;BME280;13424;48.424;11.258;2023-05-24T04:33:32;95784.91;;;14.58;72.53
25526;BME280;13424;48.424;11.258;2023-05-24T04:35:59;95786.63;;;14.74;71.85
25526;BME280;13424;48.424;11.258;2023-05-24T04:38:27;95780.75;;;14.83;70.90
25526;BME280;13424;48.424;11.258;2023-05-24T04:40:57;95780.19;;;14.75;70.51
25526;BME280;13424;48.424;11.258;2023-05-24T04:43:26;95778.44;;;13.80;74.52
25526;BME280;13424;48.424;11.258;2023-05-24T04:45:53;95788.44;;;14.64;72.00
25526;BME280;13424;48.424;11.258;2023-05-24T04:52:00;95774.38;;;14.99;70.75
25526;BME280;13424;48.424;11.258;2023-05-24T04:54:26;95779.72;;;14.89;71.26
25526;BME280;13424;48.424;11.258;2023-05-24T04:56:52;95774.69;;;15.13;69.51
25526;BME280;13424;48.424;11.258;2023-05-24T04:59:18;95777.75;;;15.52;68.83
25526;BME280;13424;48.424;11.258;2023-05-24T05:01:43;95775.56;;;15.39;68.47
25526;BME280;13424;48.424;11.258;2023-05-24T05:04:09;95780.09;;;15.23;69.62
25526;BME280;13424;48.424;11.258;2023-05-24T05:06:35;95784.09;;;15.15;71.16
25526;BME280;13424;48.424;11.258;2023-05-24T05:09:06;95787.00;;;14.46;71.85
25526;BME280;13424;48.424;11.258;2023-05-24T05:11:38;95782.31;;;14.73;71.82
25526;BME280;13424;48.424;11.258;2023-05-24T05:14:04;95785.22;;;15.29;70.41
25526;BME280;13424;48.424;11.258;2023-05-24T05:16:30;95788.13;;;15.13;70.66
25526;BME280;13424;48.424;11.258;2023-05-24T05:22:25;95795.13;;;15.14;70.51
25526;BME280;13424;48.424;11.258;2023-05-24T05:24:51;95794.41;;;15.44;69.43
25526;BME280;13424;48.424;11.258;2023-05-24T05:27:17;95797.72;;;16.27;67.23
25526;BME280;13424;48.424;11.258;2023-05-24T05:29:43;95790.09;;;15.32;68.14
25526;BME280;13424;48.424;11.258;2023-05-24T05:32:09;95785.69;;;15.06;69.82
25526;BME280;13424;48.424;11.258;2023-05-24T05:34:34;95788.59;;;16.13;66.64
25526;BME280;13424;48.424;11.258;2023-05-24T05:37:00;95781.25;;;14.32;72.27
25526;BME280;13424;48.424;11.258;2023-05-24T05:43:04;95774.84;;;16.40;67.32
25526;BME280;13424;48.424;11.258;2023-05-24T05:45:30;95772.38;;;15.52;69.48
25526;BME280;13424;48.424;11.258;2023-05-24T05:47:55;95774.78;;;15.33;68.74
25526;BME280;13424;48.424;11.258;2023-05-24T05:50:24;95771.19;;;15.07;70.05
25526;BME280;13424;48.424;11.258;2023-05-24T05:52:50;95775.66;;;14.39;71.98
25526;BME280;13424;48.424;11.258;2023-05-24T05:55:16;95774.97;;;15.16;68.97
25526;BME280;13424;48.424;11.258;2023-05-24T05:57:41;95770.72;;;15.25;68.89
25526;BME280;13424;48.424;11.258;2023-05-24T06:00:08;95771.34;;;13.14;74.00
25526;BME280;13424;48.424;11.258;2023-05-24T06:02:40;95786.06;;;15.45;68.87
25526;BME280;13424;48.424;11.258;2023-05-24T06:05:06;95780.31;;;15.06;69.56
25526;BME280;13424;48.424;11.258;2023-05-24T06:07:32;95784.06;;;15.05;69.73
25526;BME280;13424;48.424;11.258;2023-05-24T06:09:58;95780.47;;;15.57;67.75
25526;BME280;13424;48.424;11.258;2023-05-24T06:15:58;95773.44;;;16.68;65.96
25526;BME280;13424;48.424;11.258;2023-05-24T06:18:24;95774.03;;;16.34;66.71
25526;BME280;13424;48.424;11.258;2023-05-24T06:20:52;95784.88;;;17.19;64.30
25526;BME280;13424;48.424;11.258;2023-05-24T06:23:17;95784.13;;;17.09;64.31
25526;BME280;13424;48.424;11.258;2023-05-24T06:25:43;95779.88;;;16.87;65.15
25526;BME280;13424;48.424;11.258;2023-05-24T06:28:09;95786.69;;;17.29;63.36
25526;BME280;13424;48.424;11.258;2023-05-24T06:30:35;95782.81;;;15.28;68.41
25526;BME280;13424;48.424;11.258;2023-05-24T06:33:57;95784.88;;;15.05;70.01
25526;BME280;13424;48.424;11.258;2023-05-24T06:36:23;95793.22;;;17.18;64.07
25526;BME280;13424;48.424;11.258;2023-05-24T06:38:48;95792.84;;;16.60;64.45
25526;BME280;13424;48.424;11.258;2023-05-24T06:41:14;95802.13;;;17.13;63.47
25526;BME280;13424;48.424;11.258;2023-05-24T06:43:40;95798.16;;;17.99;62.24
25526;BME280;13424;48.424;11.258;2023-05-24T06:46:06;95791.78;;;17.41;63.79
25526;BME280;13424;48.424;11.258;2023-05-24T06:48:32;95798.03;;;18.20;60.20
25526;BME280;13424;48.424;11.258;2023-05-24T06:50:57;95800.06;;;17.99;60.68
25526;BME280;13424;48.424;11.258;2023-05-24T06:53:23;95802.31;;;18.26;59.92
25526;BME280;13424;48.424;11.258;2023-05-24T06:55:49;95804.69;;;16.84;64.86
25526;BME280;13424;48.424;11.258;2023-05-24T06:58:15;95806.44;;;17.69;61.26
25526;BME280;13424;48.424;11.258;2023-05-24T07:00:41;95807.72;;;17.87;61.76
25526;BME280;13424;48.424;11.258;2023-05-24T07:03:08;95809.03;;;16.29;65.31
25526;BME280;13424;48.424;11.258;2023-05-24T07:05:35;95808.75;;;16.10;65.56
25526;BME280;13424;48.424;11.258;2023-05-24T07:08:01;95804.53;;;17.69;61.56
25526;BME280;13424;48.424;11.258;2023-05-24T07:10:27;95811.25;;;18.50;60.62
25526;BME280;13424;48.424;11.258;2023-05-24T07:12:52;95808.38;;;18.71;61.51
25526;BME280;13424;48.424;11.258;2023-05-24T07:15:18;95806.03;;;18.30;60.80
25526;BME280;13424;48.424;11.258;2023-05-24T07:17:44;95807.75;;;17.76;61.46
25526;BME280;13424;48.424;11.258;2023-05-24T07:20:10;95816.28;;;18.33;60.09
25526;BME280;13424;48.424;11.258;2023-05-24T07:23:23;95818.00;;;18.82;58.04
25526;BME280;13424;48.424;11.258;2023-05-24T07:25:49;95817.56;;;18.69;58.07
25526;BME280;13424;48.424;11.258;2023-05-24T07:28:15;95817.13;;;18.57;60.65
25526;BME280;13424;48.424;11.258;2023-05-24T07:30:44;95814.22;;;18.20;59.36
25526;BME280;13424;48.424;11.258;2023-05-24T07:33:10;95812.59;;;18.82;58.48
25526;BME280;13424;48.424;11.258;2023-05-24T07:35:36;95819.16;;;19.66;57.22
25526;BME280;13424;48.424;11.258;2023-05-24T07:42:10;95810.81;;;17.59;60.67
25526;BME280;13424;48.424;11.258;2023-05-24T07:44:36;95825.31;;;19.05;58.88
25526;BME280;13424;48.424;11.258;2023-05-24T07:47:02;95815.34;;;17.15;62.26
25526;BME280;13424;48.424;11.258;2023-05-24T07:49:28;95816.50;;;16.88;62.32
25526;BME280;13424;48.424;11.258;2023-05-24T07:52:37;95817.44;;;18.22;61.44
25526;BME280;13424;48.424;11.258;2023-05-24T07:55:04;95822.06;;;17.22;62.10
25526;BME280;13424;48.424;11.258;2023-05-24T07:57:30;95821.41;;;16.71;63.53
25526;BME280;13424;48.424;11.258;2023-05-24T07:59:56;95819.22;;;18.02;62.37
25526;BME280;13424;48.424;11.258;2023-05-24T08:02:22;95831.19;;;18.54;59.91
25526;BME280;13424;48.424;11.258;2023-05-24T08:04:48;95821.97;;;19.37;58.55
25526;BME280;13424;48.424;11.258;2023-05-24T08:07:14;95827.84;;;16.60;63.34
25526;BME280;13424;48.424;11.258;2023-05-24T08:09:40;95830.34;;;18.88;61.98
25526;BME280;13424;48.424;11.258;2023-05-24T08:12:06;95830.78;;;17.53;61.95
25526;BME280;13424;48.424;11.258;2023-05-24T08:14:32;95831.63;;;16.03;67.42
25526;BME280;13424;48.424;11.258;2023-05-24T08:16:58;95844.53;;;15.80;67.16
25526;BME280;13424;48.424;11.258;2023-05-24T08:19:27;95849.88;;;18.51;59.53
25526;BME280;13424;48.424;11.258;2023-05-24T08:21:54;95843.69;;;15.65;66.16
25526;BME280;13424;48.424;11.258;2023-05-24T08:24:21;95841.88;;;16.52;65.25
25526;BME280;13424;48.424;11.258;2023-05-24T08:26:47;95849.44;;;18.73;59.06
25526;BME280;13424;48.424;11.258;2023-05-24T08:29:14;95849.34;;;15.73;65.90
25526;BME280;13424;48.424;11.258;2023-05-24T08:31:42;95852.81;;;17.76;64.30
25526;BME280;13424;48.424;11.258;2023-05-24T08:34:10;95851.28;;;16.39;64.59
25526;BME280;13424;48.424;11.258;2023-05-24T08:36:37;95852.03;;;15.68;66.10
25526;BME280;13424;48.424;11.258;2023-05-24T08:39:03;95860.31;;;17.24;64.72
25526;BME280;13424;48.424;11.258;2023-05-24T08:41:29;95864.44;;;17.01;65.24
25526;BME280;13424;48.424;11.258;2023-05-24T08:43:59;95865.72;;;17.84;61.61
25526;BME280;13424;48.424;11.258;2023-05-24T08:46:27;95861.88;;;14.90;67.08
25526;BME280;13424;48.424;11.258;2023-05-24T08:48:53;95856.44;;;18.05;62.21
25526;BME280;13424;48.424;11.258;2023-05-24T08:51:19;95860.72;;;16.52;63.78
25526;BME280;13424;48.424;11.258;2023-05-24T08:53:45;95857.72;;;16.58;61.79
25526;BME280;13424;48.424;11.258;2023-05-24T08:56:16;95857.00;;;18.02;60.48
25526;BME280;13424;48.424;11.258;2023-05-24T08:58:42;95859.94;;;18.40;59.33
25526;BME280;13424;48.424;11.258;2023-05-24T09:01:10;95861.75;;;18.16;58.65
25526;BME280;13424;48.424;11.258;2023-05-24T09:03:37;95868.94;;;17.21;63.25
25526;BME280;13424;48.424;11.258;2023-05-24T09:06:05;95871.34;;;17.38;63.20
25526;BME280;13424;48.424;11.258;2023-05-24T09:08:31;95861.31;;;17.98;62.31
25526;BME280;13424;48.424;11.258;2023-05-24T09:11:00;95866.88;;;15.96;61.48
25526;BME280;13424;48.424;11.258;2023-05-24T09:13:27;95857.75;;;17.58;58.69
25526;BME280;13424;48.424;11.258;2023-05-24T09:15:53;95865.78;;;18.52;59.11
25526;BME280;13424;48.424;11.258;2023-05-24T09:18:18;95863.97;;;18.77;55.86
25526;BME280;13424;48.424;11.258;2023-05-24T09:20:44;95868.31;;;17.99;57.42
25526;BME280;13424;48.424;11.258;2023-05-24T09:23:10;95867.72;;;18.47;56.17
25526;BME280;13424;48.424;11.258;2023-05-24T09:29:08;95868.63;;;18.32;58.41
25526;BME280;13424;48.424;11.258;2023-05-24T09:31:35;95874.59;;;17.25;58.90
25526;BME280;13424;48.424;11.258;2023-05-24T09:34:02;95870.38;;;16.98;62.70
25526;BME280;13424;48.424;11.258;2023-05-24T09:36:28;95861.25;;;16.23;62.68
25526;BME280;13424;48.424;11.258;2023-05-24T09:39:05;95862.28;;;16.02;62.73
25526;BME280;13424;48.424;11.258;2023-05-24T09:41:35;95861.56;;;15.39;62.35
25526;BME280;13424;48.424;11.258;2023-05-24T09:44:02;95864.03;;;14.93;64.49
25526;BME280;13424;48.424;11.258;2023-05-24T09:46:28;95860.66;;;15.85;64.97
25526;BME280;13424;48.424;11.258;2023-05-24T09:49:00;95854.50;;;16.41;61.67
25526;BME280;13424;48.424;11.258;2023-05-24T09:51:32;95857.97;;;17.67;58.93
25526;BME280;13424;48.424;11.258;2023-05-24T09:54:01;95863.66;;;18.49;58.48
25526;BME280;13424;48.424;11.258;2023-05-24T09:56:28;95850.47;;;16.79;59.48
25526;BME280;13424;48.424;11.258;2023-05-24T09:58:54;95858.09;;;18.01;55.55
25526;BME280;13424;48.424;11.258;2023-05-24T10:01:23;95867.63;;;18.91;54.71
25526;BME280;13424;48.424;11.258;2023-05-24T10:03:57;95869.53;;;18.22;54.92
25526;BME280;13424;48.424;11.258;2023-05-24T10:06:24;95865.69;;;18.67;54.35
25526;BME280;13424;48.424;11.258;2023-05-24T10:08:51;95869.69;;;18.41;54.74
25526;BME280;13424;48.424;11.258;2023-05-24T10:11:17;95867.63;;;17.14;58.52
25526;BME280;13424;48.424;11.258;2023-05-24T10:13:43;95865.19;;;17.87;56.28
25526;BME280;13424;48.424;11.258;2023-05-24T10:16:09;95871.19;;;19.10;53.90
25526;BME280;13424;48.424;11.258;2023-05-24T10:18:35;95864.81;;;18.04;57.40
25526;BME280;13424;48.424;11.258;2023-05-24T10:21:01;95871.09;;;18.33;55.74
25526;BME280;13424;48.424;11.258;2023-05-24T10:23:30;95872.00;;;19.35;55.05
25526;BME280;13424;48.424;11.258;2023-05-24T10:26:07;95869.41;;;18.03;55.84
25526;BME280;13424;48.424;11.258;2023-05-24T10:28:43;95869.44;;;17.39;55.90
25526;BME280;13424;48.424;11.258;2023-05-24T10:31:14;95876.56;;;18.57;55.74
25526;BME280;13424;48.424;11.258;2023-05-24T10:33:43;95871.19;;;18.52;56.69
25526;BME280;13424;48.424;11.258;2023-05-24T10:36:12;95873.06;;;18.57;55.93
25526;BME280;13424;48.424;11.258;2023-05-24T10:38:38;95876.56;;;18.86;55.59
25526;BME280;13424;48.424;11.258;2023-05-24T10:41:08;95866.78;;;19.67;53.16
25526;BME280;13424;48.424;11.258;2023-05-24T10:43:37;95876.41;;;19.31;53.55
25526;BME280;13424;48.424;11.258;2023-05-24T10:46:04;95875.03;;;19.57;51.92
25526;BME280;13424;48.424;11.258;2023-05-24T10:48:34;95873.59;;;17.75;55.85
25526;BME280;13424;48.424;11.258;2023-05-24T10:51:37;95870.25;;;19.92;51.65
25526;BME280;13424;48.424;11.258;2023-05-24T10:54:15;95874.72;;;19.35;52.59
25526;BME280;13424;48.424;11.258;2023-05-24T10:56:47;95876.38;;;19.78;49.98
25526;BME280;13424;48.424;11.258;2023-05-24T10:59:36;95876.41;;;19.31;50.85
25526;BME280;13424;48.424;11.258;2023-05-24T11:02:10;95868.78;;;19.33;49.52
25526;BME280;13424;48.424;11.258;2023-05-24T11:04:49;95868.50;;;17.64;54.66
25526;BME280;13424;48.424;11.258;2023-05-24T11:07:15;95870.44;;;18.81;53.31
25526;BME280;13424;48.424;11.258;2023-05-24T11:09:46;95875.84;;;18.07;54.16
25526;BME280;13424;48.424;11.258;2023-05-24T11:12:18;95874.47;;;19.98;48.98
25526;BME280;13424;48.424;11.258;2023-05-24T11:14:51;95868.56;;;19.77;50.25
25526;BME280;13424;48.424;11.258;2023-05-24T11:20:43;95861.91;;;18.68;53.05
25526;BME280;13424;48.424;11.258;2023-05-24T11:23:14;95857.94;;;20.18;53.10
25526;BME280;13424;48.424;11.258;2023-05-24T11:25:40;95860.72;;;18.46;53.48
25526;BME280;13424;48.424;11.258;2023-05-24T11:28:10;95863.16;;;18.76;51.83
25526;BME280;13424;48.424;11.258;2023-05-24T11:30:44;95863.28;;;19.86;50.62
25526;BME280;13424;48.424;11.258;2023-05-24T11:33:17;95867.00;;;19.47;50.45
25526;BME280;13424;48.424;11.258;2023-05-24T11:39:19;95876.84;;;18.90;51.42
25526;BME280;13424;48.424;11.258;2023-05-24T11:41:46;95870.06;;;18.58;50.72
25526;BME280;13424;48.424;11.258;2023-05-24T11:44:16;95870.81;;;18.69;52.45
25526;BME280;13424;48.424;11.258;2023-05-24T11:47:01;95866.25;;;18.64;52.30
25526;BME280;13424;48.424;11.258;2023-05-24T11:49:27;95869.81;;;18.89;52.74
25526;BME280;13424;48.424;11.258;2023-05-24T11:51:55;95872.44;;;18.94;54.41
25526;BME280;13424;48.424;11.258;2023-05-24T11:54:22;95861.13;;;17.30;55.19
25526;BME280;13424;48.424;11.258;2023-05-24T11:56:48;95870.50;;;18.71;55.96
25526;BME280;13424;48.424;11.258;2023-05-24T11:59:35;95864.09;;;18.61;53.55
25526;BME280;13424;48.424;11.258;2023-05-24T12:02:04;95865.78;;;18.86;53.52
25526;BME280;13424;48.424;11.258;2023-05-24T12:04:31;95855.34;;;17.52;55.16
25526;BME280;13424;48.424;11.258;2023-05-24T12:06:58;95865.56;;;19.07;51.81
25526;BME280;13424;48.424;11.258;2023-05-24T12:09:24;95873.47;;;20.13;52.07
25526;BME280;13424;48.424;11.258;2023-05-24T12:11:51;95860.97;;;18.49;53.47
25526;BME280;13424;48.424;11.258;2023-05-24T12:14:27;95854.53;;;17.51;57.18
25526;BME280;13424;48.424;11.258;2023-05-24T12:16:55;95843.59;;;18.55;53.54
25526;BME280;13424;48.424;11.258;2023-05-24T12:19:24;95847.81;;;20.43;50.21
25526;BME280;13424;48.424;11.258;2023-05-24T12:22:04;95849.34;;;19.07;54.17
25526;BME280;13424;48.424;11.258;2023-05-24T12:24:30;95848.53;;;18.14;52.54
25526;BME280;13424;48.424;11.258;2023-05-24T12:27:04;95853.53;;;19.42;52.03
25526;BME280;13424;48.424;11.258;2023-05-24T12:29:38;95851.63;;;17.43;54.62
25526;BME280;13424;48.424;11.258;2023-05-24T12:32:05;95849.59;;;18.52;53.59
25526;BME280;13424;48.424;11.258;2023-05-24T12:34:36;95858.03;;;18.06;53.95
25526;BME280;13424;48.424;11.258;2023-05-24T12:37:02;95860.38;;;19.34;52.92
25526;BME280;13424;48.424;11.258;2023-05-24T12:39:29;95865.78;;;19.10;53.75
25526;BME280;13424;48.424;11.258;2023-05-24T12:42:02;95861.66;;;19.18;54.40
25526;BME280;13424;48.424;11.258;2023-05-24T12:44:30;95865.03;;;20.14;52.51
25526;BME280;13424;48.424;11.258;2023-05-24T12:46:57;95854.19;;;18.18;54.10
25526;BME280;13424;48.424;11.258;2023-05-24T12:49:24;95852.28;;;20.52;49.35
25526;BME280;13424;48.424;11.258;2023-05-24T12:51:53;95865.34;;;20.31;49.28
25526;BME280;13424;48.424;11.258;2023-05-24T12:54:22;95862.25;;;20.57;51.47
25526;BME280;13424;48.424;11.258;2023-05-24T12:56:49;95865.31;;;19.51;51.65
25526;BME280;13424;48.424;11.258;2023-05-24T12:59:15;95860.38;;;20.71;47.49
25526;BME280;13424;48.424;11.258;2023-05-24T13:01:41;95852.03;;;19.78;50.15
25526;BME280;13424;48.424;11.258;2023-05-24T13:04:08;95854.28;;;19.47;54.20
25526;BME280;13424;48.424;11.258;2023-05-24T13:06:35;95844.69;;;20.68;49.21
25526;BME280;13424;48.424;11.258;2023-05-24T13:09:03;95847.31;;;20.41;48.97
25526;BME280;13424;48.424;11.258;2023-05-24T13:11:28;95836.66;;;20.30;48.29
25526;BME280;13424;48.424;11.258;2023-05-24T13:13:56;95836.63;;;20.96;49.46
25526;BME280;13424;48.424;11.258;2023-05-24T13:16:22;95833.81;;;18.64;52.44
25526;BME280;13424;48.424;11.258;2023-05-24T13:18:49;95831.56;;;20.43;47.91
25526;BME280;13424;48.424;11.258;2023-05-24T13:21:15;95835.13;;;20.89;46.18
25526;BME280;13424;48.424;11.258;2023-05-24T13:23:41;95835.16;;;21.44;43.87
25526;BME280;13424;48.424;11.258;2023-05-24T13:26:08;95840.22;;;18.05;50.48
25526;BME280;13424;48.424;11.258;2023-05-24T13:28:33;95829.00;;;20.51;49.62
25526;BME280;13424;48.424;11.258;2023-05-24T13:31:00;95836.72;;;20.90;47.63
25526;BME280;13424;48.424;11.258;2023-05-24T13:33:25;95835.41;;;19.18;51.49
25526;BME280;13424;48.424;11.258;2023-05-24T13:35:52;95832.25;;;19.97;49.32
25526;BME280;13424;48.424;11.258;2023-05-24T13:38:20;95839.59;;;20.67;49.72
25526;BME280;13424;48.424;11.258;2023-05-24T13:40:46;95829.88;;;20.93;49.05
25526;BME280;13424;48.424;11.258;2023-05-24T13:43:12;95832.13;;;20.07;47.48
25526;BME280;13424;48.424;11.258;2023-05-24T13:45:38;95824.09;;;21.55;45.76
25526;BME280;13424;48.424;11.258;2023-05-24T13:48:04;95826.22;;;21.58;48.02